Salem, WV (26426)

15:14:EST den 28. november 2014 (GMT -0500)
Marshville | Change Station
CLOSE
Current Station
Personlig værstasjon
Location: Salem, WV
Høyde over havet: 1122 ft
Nearby Weather Stations

H.o.h 1122 ft 39.34 °N, 80.52 °W | Updated 8 minutes ago

Overskyet
Overskyet
31.6 °F
Feels Like 32 °F
N
2.7
Vind Variabel Vind from

I dag
High -- | Low -- °F
--% Chance of Precip.
I går
High -- | Low -- °F
Precip. -- tommer
7:19 AM 5:00 PM
Økende sigd, 43% visible
Lufttrykk 30.29 tommer
Sikt 10.0 eng. mil
Skyet Overskyet 3500 ft
Nedkjølingseffekt 32 °F
Duggpunkt 19 °F
Fuktighet 60%
Regn 0.00 tommer
Snødybde Not available.
UV 0 av 12
Pollen .10 av 12
Luftkvalitet Not available.
Flu Activity Not available.
METAR KCKB 281953Z 23006KT 10SM OVC035 M02/M08 A3027 RMK AO2 SLP257 T10171078

More Conditions Fewer Conditions

Lufttrykk 30.29 tommer
Sikt 10.0 eng. mil
Skyet Overskyet 3500 ft
Nedkjølingseffekt 32 °F
Duggpunkt 19 °F
Fuktighet 60%
Regn 0.00 tommer
Snødybde Not available.
UV 0 av 12
Pollen .10 av 12
Luftkvalitet Not available.
Flu Activity Not available.
METAR KCKB 281953Z 23006KT 10SM OVC035 M02/M08 A3027 RMK AO2 SLP257 T10171078

More Conditions Fewer Conditions

10-Day Weather Forecast

Almanac

Astronomi

Nov. 28, 2014 Oppgang Nedgang
Virkelig tid
Tussmørke
Nautisk skumring
Astronomisk skumring
Månen
Lengde av synlig lys
Dagens lengde
Tomorrow will be .
, % of the Moon is Illuminated

Dagens maks og min

State Highs State Lows

Community

WunderPhotos

Upload Photos

1,774,273 photos uploaded!

WunderBlogs® & News

Nearby

Luftkvalitet

  Luftkvalitet AQ Indeks Forurensing
Not available.

Snødybde

Stasjon Depth Høyde over havet

Earthquake Activity

By Distance Mag. Time & Date
Minimum magnitude displayed is 2.5.

Coastal Water Temperatures

Sted Temperatur

Nearby Weather Stations